Time;durP1;ratioP1;P1;durP2;ratioP2;P2;SDS_P1;SDS_P2;PMS_P1;PMS_P2;Temp;Humidity;BMP_temperature;BMP_pressure;BME280_temperature;BME280_humidity;BME280_pressure;Samples;Min_cycle;Max_cycle;Signal;HPM_P1;HPM_P2
2023/06/13 00:00:59;;;;;;;11.63;5.47;;;18.40;69.60;;;;;;5014583;28;20057;-87
2023/06/13 00:03:29;;;;;;;11.30;5.50;;;17.90;68.80;;;;;;5014867;28;20995;-87
2023/06/13 00:05:55;;;;;;;11.65;5.45;;;17.90;68.80;;;;;;5033917;28;20056;-87
2023/06/13 00:08:21;;;;;;;11.45;5.22;;;17.80;68.90;;;;;;5022122;28;20053;-87
2023/06/13 00:10:51;;;;;;;11.05;5.53;;;17.80;69.00;;;;;;5015999;28;20060;-87
2023/06/13 00:13:17;;;;;;;13.35;5.85;;;17.80;69.20;;;;;;5015034;28;20394;-87
2023/06/13 00:15:52;;;;;;;10.43;5.68;;;18.30;69.50;;;;;;5014623;28;20105;-87
2023/06/13 00:18:19;;;;;;;13.88;6.10;;;17.70;69.40;;;;;;5014748;28;20057;-87
2023/06/13 00:20:49;;;;;;;11.40;6.10;;;17.70;69.10;;;;;;5014483;28;20077;-87
2023/06/13 00:23:15;;;;;;;14.35;6.68;;;17.70;69.30;;;;;;5014226;28;20482;-87
2023/06/13 00:25:41;;;;;;;12.45;6.10;;;17.70;69.40;;;;;;5015034;28;20046;-87
2023/06/13 00:28:07;;;;;;;12.18;6.03;;;17.60;69.40;;;;;;5013792;28;20086;-87
2023/06/13 00:30:33;;;;;;;12.80;6.13;;;17.60;69.60;;;;;;5015339;28;20450;-87
2023/06/13 00:32:59;;;;;;;11.75;6.40;;;17.60;69.70;;;;;;5005681;28;20050;-87
2023/06/13 00:35:25;;;;;;;13.38;6.55;;;17.40;69.70;;;;;;5005199;28;20077;-87
2023/06/13 00:37:54;;;;;;;12.68;6.45;;;17.60;70.00;;;;;;5014281;28;20034;-86
2023/06/13 00:40:20;;;;;;;11.23;6.38;;;17.40;70.10;;;;;;4996473;28;20525;-87
2023/06/13 00:42:46;;;;;;;11.07;6.45;;;17.30;70.20;;;;;;5013906;28;20046;-87
2023/06/13 00:45:20;;;;;;;11.77;6.38;;;17.30;70.20;;;;;;5023839;23;20156;-87
2023/06/13 00:47:54;;;;;;;11.88;6.60;;;17.20;70.80;;;;;;5029572;28;20049;-87
2023/06/13 00:50:26;;;;;;;12.48;6.93;;;17.70;70.80;;;;;;5014270;28;20046;-87
2023/06/13 00:52:53;;;;;;;15.48;6.78;;;17.80;71.10;;;;;;5019960;28;20047;-87
2023/06/13 00:55:22;;;;;;;12.13;6.60;;;17.00;70.80;;;;;;5033769;28;20046;-87
2023/06/13 00:57:51;;;;;;;13.25;6.75;;;17.00;70.90;;;;;;5030709;28;20037;-87
2023/06/13 01:00:18;;;;;;;13.60;6.25;;;17.60;71.40;;;;;;4996431;28;20046;-87
2023/06/13 01:02:44;;;;;;;12.63;6.78;;;16.90;71.20;;;;;;4997351;28;20074;-88
2023/06/13 01:05:11;;;;;;;11.82;6.38;;;17.10;71.40;;;;;;5019082;28;20084;-87
2023/06/13 01:07:39;;;;;;;12.20;6.38;;;17.20;71.70;;;;;;5012903;28;20440;-87
2023/06/13 01:10:06;;;;;;;14.52;6.20;;;16.70;71.70;;;;;;5002636;28;20473;-87
2023/06/13 01:12:44;;;;;;;14.30;6.65;;;16.70;71.70;;;;;;5033066;28;20492;-87
2023/06/13 01:15:32;;;;;;;12.13;6.40;;;16.70;72.10;;;;;;4995955;28;20173;-87
2023/06/13 01:18:05;;;;;;;12.05;6.60;;;16.70;72.10;;;;;;4997350;28;20450;-87
2023/06/13 01:20:35;;;;;;;11.63;6.22;;;16.60;72.10;;;;;;5014256;28;20037;-87
2023/06/13 01:23:34;;;;;;;10.98;6.30;;;16.60;72.50;;;;;;4997171;28;20120;-87
2023/06/13 01:26:03;;;;;;;15.55;6.93;;;16.50;72.80;;;;;;5024113;28;20129;-87
2023/06/13 01:28:51;;;;;;;15.40;6.72;;;16.40;72.60;;;;;;5007425;28;20478;-87
2023/06/13 01:31:19;;;;;;;13.05;6.70;;;16.40;73.00;;;;;;4996758;28;20041;-88
2023/06/13 01:33:46;;;;;;;12.35;6.32;;;16.40;72.90;;;;;;4997882;28;20073;-87
2023/06/13 01:36:30;;;;;;;11.73;6.13;;;16.90;73.30;;;;;;5002882;28;20061;-87
2023/06/13 01:38:56;;;;;;;10.77;5.95;;;16.30;73.20;;;;;;4988460;28;20042;-87
2023/06/13 01:41:22;;;;;;;12.82;6.15;;;17.00;73.70;;;;;;4996138;28;20093;-87
2023/06/13 01:43:47;;;;;;;12.68;6.20;;;16.60;73.70;;;;;;4995769;28;20080;-87
2023/06/13 01:46:49;;;;;;;11.10;6.30;;;16.20;73.60;;;;;;4996126;28;20556;-87
2023/06/13 01:49:39;;;;;;;13.95;6.30;;;16.20;74.30;;;;;;4995907;28;20073;-86
2023/06/13 01:52:10;;;;;;;11.55;6.65;;;16.10;73.90;;;;;;5008957;28;20048;-87
2023/06/13 01:54:41;;;;;;;13.80;6.47;;;16.10;73.90;;;;;;5015489;28;20493;-87
2023/06/13 01:57:09;;;;;;;14.60;6.55;;;16.10;74.10;;;;;;5014304;28;20042;-87
2023/06/13 01:59:37;;;;;;;11.48;6.22;;;16.00;74.20;;;;;;5015774;28;20037;-87
2023/06/13 02:02:04;;;;;;;14.63;6.47;;;16.00;74.40;;;;;;5000429;28;20132;-87
2023/06/13 02:04:37;;;;;;;12.70;6.00;;;16.00;74.60;;;;;;5011463;28;20045;-87
2023/06/13 02:07:04;;;;;;;12.55;6.40;;;15.90;74.70;;;;;;5012780;28;20042;-87
2023/06/13 02:09:29;;;;;;;13.20;6.28;;;15.90;75.00;;;;;;5009772;28;20081;-87
2023/06/13 02:11:55;;;;;;;10.60;5.75;;;15.80;75.20;;;;;;5014964;28;20107;-87
2023/06/13 02:14:20;;;;;;;12.25;5.78;;;15.80;75.30;;;;;;5015135;28;20076;-87
2023/06/13 02:16:48;;;;;;;11.63;5.90;;;15.80;75.50;;;;;;5033193;28;20077;-87
2023/06/13 02:19:13;;;;;;;11.73;5.95;;;15.90;75.60;;;;;;5014192;28;20046;-86
2023/06/13 02:21:45;;;;;;;11.82;6.05;;;15.90;75.80;;;;;;5033413;28;20370;-86
2023/06/13 02:24:14;;;;;;;12.10;6.22;;;15.70;76.20;;;;;;5014693;28;20041;-87
2023/06/13 02:26:40;;;;;;;12.60;6.30;;;15.60;76.20;;;;;;5032408;28;20041;-87
2023/06/13 02:29:07;;;;;;;12.80;6.13;;;15.60;76.40;;;;;;5015087;28;20052;-87
2023/06/13 02:31:35;;;;;;;14.27;5.82;;;15.80;76.60;;;;;;5009581;28;20049;-87
2023/06/13 02:34:01;;;;;;;12.82;5.80;;;15.50;76.50;;;;;;5030830;28;20033;-87
2023/06/13 02:36:39;;;;;;;14.35;5.95;;;15.50;76.70;;;;;;5030419;28;20057;-87
2023/06/13 02:39:07;;;;;;;13.23;6.15;;;15.50;77.00;;;;;;5022406;28;20117;-87
2023/06/13 02:41:33;;;;;;;12.80;5.80;;;15.40;77.10;;;;;;4995734;28;20088;-87
2023/06/13 02:43:58;;;;;;;10.68;5.95;;;16.40;77.70;;;;;;5020904;28;20081;-87
2023/06/13 02:46:24;;;;;;;10.85;5.63;;;16.00;77.70;;;;;;5013912;28;20045;-86
2023/06/13 02:48:59;;;;;;;10.65;5.20;;;16.10;77.80;;;;;;5032606;28;20053;-87
2023/06/13 02:51:25;;;;;;;11.32;5.75;;;15.30;78.10;;;;;;5032886;28;20045;-87
2023/06/13 02:53:50;;;;;;;12.00;5.78;;;15.30;77.70;;;;;;5008485;28;20038;-86
2023/06/13 02:56:29;;;;;;;11.52;5.40;;;15.20;77.80;;;;;;4996193;28;20374;-86
2023/06/13 02:58:54;;;;;;;10.48;5.47;;;15.20;78.70;;;;;;4996142;28;20053;-87
2023/06/13 03:01:20;;;;;;;13.20;5.72;;;15.70;78.30;;;;;;5013041;28;20050;-87
2023/06/13 03:03:49;;;;;;;11.57;5.70;;;15.20;78.20;;;;;;5014362;28;20041;-86
2023/06/13 03:06:29;;;;;;;13.45;5.60;;;15.90;78.60;;;;;;5032938;28;20045;-87
2023/06/13 03:08:58;;;;;;;11.02;5.32;;;15.50;79.10;;;;;;5016387;28;20124;-87
2023/06/13 03:11:24;;;;;;;10.52;5.25;;;15.60;78.80;;;;;;5016969;28;20103;-86
2023/06/13 03:14:06;;;;;;;11.15;5.32;;;15.10;78.70;;;;;;5014799;28;20061;-88
2023/06/13 03:16:32;;;;;;;12.02;6.07;;;15.70;79.90;;;;;;5033501;28;20099;-87
2023/06/13 03:18:58;;;;;;;12.00;5.50;;;15.30;79.10;;;;;;5033250;28;20113;-87
2023/06/13 03:21:23;;;;;;;11.02;5.78;;;15.10;79.20;;;;;;5015226;28;20132;-87
2023/06/13 03:23:49;;;;;;;10.70;5.32;;;15.10;79.20;;;;;;5034307;28;20029;-87
2023/06/13 03:26:16;;;;;;;12.07;5.45;;;15.60;79.60;;;;;;5014958;28;20512;-87
2023/06/13 03:28:42;;;;;;;12.50;5.78;;;15.10;79.40;;;;;;5034355;28;20095;-86
2023/06/13 03:31:08;;;;;;;12.07;5.68;;;15.90;80.00;;;;;;5018553;28;20251;-87
2023/06/13 03:33:34;;;;;;;11.40;5.20;;;15.30;79.80;;;;;;5012322;28;20072;-87
2023/06/13 03:36:02;;;;;;;10.95;5.32;;;15.40;79.90;;;;;;5013645;28;20501;-86
2023/06/13 03:38:31;;;;;;;10.25;5.70;;;15.00;79.90;;;;;;5032122;28;20053;-87
2023/06/13 03:40:56;;;;;;;10.45;5.35;;;15.40;80.20;;;;;;5014646;28;20046;-86
2023/06/13 03:43:22;;;;;;;10.82;5.25;;;15.40;80.30;;;;;;5031613;28;20044;-85
2023/06/13 03:45:48;;;;;;;11.98;5.50;;;15.30;80.30;;;;;;5012311;28;20119;-86
2023/06/13 03:48:14;;;;;;;12.40;5.05;;;14.90;80.20;;;;;;4995102;28;20068;-86
2023/06/13 03:50:40;;;;;;;11.52;5.05;;;15.00;80.30;;;;;;5012393;28;20057;-87
2023/06/13 03:53:05;;;;;;;11.57;5.60;;;15.00;80.40;;;;;;5014252;28;20382;-86
2023/06/13 03:55:34;;;;;;;10.57;5.63;;;15.50;80.80;;;;;;5032480;28;20378;-87
2023/06/13 03:57:59;;;;;;;11.38;5.70;;;15.00;80.60;;;;;;5031301;28;20430;-86
2023/06/13 04:00:25;;;;;;;11.93;5.63;;;15.10;80.80;;;;;;5015652;28;20092;-86
2023/06/13 04:02:53;;;;;;;12.77;5.43;;;15.00;80.80;;;;;;5010172;28;20442;-87
2023/06/13 04:05:21;;;;;;;12.23;5.15;;;15.00;80.80;;;;;;4997564;28;20045;-86
2023/06/13 04:07:47;;;;;;;11.07;5.30;;;15.80;81.40;;;;;;4994353;28;20054;-87
2023/06/13 04:10:12;;;;;;;13.32;5.50;;;15.70;81.40;;;;;;4993807;28;20049;-87
2023/06/13 04:12:38;;;;;;;13.07;6.00;;;15.70;81.60;;;;;;5012306;28;20046;-87
2023/06/13 04:15:06;;;;;;;14.95;5.80;;;15.10;81.50;;;;;;4994264;28;20069;-86
2023/06/13 04:17:32;;;;;;;10.82;5.78;;;15.00;81.50;;;;;;4994761;28;20050;-86
2023/06/13 04:19:58;;;;;;;11.80;5.50;;;15.20;81.60;;;;;;5051093;23;20054;-86
2023/06/13 04:22:24;;;;;;;12.02;5.57;;;15.10;81.70;;;;;;5011269;28;20099;-87
2023/06/13 04:24:53;;;;;;;14.35;5.60;;;15.90;82.30;;;;;;5001316;28;20406;-87
2023/06/13 04:27:19;;;;;;;10.68;5.28;;;15.40;82.00;;;;;;4993559;28;20058;-86
2023/06/13 04:29:48;;;;;;;11.88;5.22;;;15.20;81.80;;;;;;4994750;28;20049;-87
2023/06/13 04:32:17;;;;;;;11.23;5.50;;;15.40;82.10;;;;;;4986211;28;20049;-86
2023/06/13 04:34:52;;;;;;;11.52;5.28;;;15.80;82.40;;;;;;4996251;28;20042;-87
2023/06/13 04:37:25;;;;;;;10.18;5.00;;;15.20;82.10;;;;;;4994414;28;20046;-87
2023/06/13 04:39:54;;;;;;;12.52;5.53;;;15.30;82.10;;;;;;4995104;28;20042;-86
2023/06/13 04:42:24;;;;;;;11.70;5.15;;;15.30;82.50;;;;;;4995576;28;20105;-87
2023/06/13 04:44:52;;;;;;;10.70;5.00;;;16.20;82.50;;;;;;4995851;28;20042;-87
2023/06/13 04:47:19;;;;;;;11.23;4.82;;;15.70;82.20;;;;;;4993142;28;20039;-86
2023/06/13 04:49:45;;;;;;;10.15;5.10;;;15.80;82.20;;;;;;4994133;28;20422;-87
2023/06/13 04:52:14;;;;;;;14.02;5.35;;;15.50;82.00;;;;;;4993879;28;20046;-87
2023/06/13 04:54:40;;;;;;;10.05;4.93;;;15.60;82.10;;;;;;4993578;28;20045;-87
2023/06/13 04:57:06;;;;;;;11.68;4.85;;;15.90;82.20;;;;;;4994083;28;20569;-87
2023/06/13 04:59:31;;;;;;;10.35;5.15;;;15.70;82.00;;;;;;4993402;28;20129;-77
2023/06/13 05:01:57;;;;;;;11.10;4.97;;;16.00;82.10;;;;;;4996038;28;20138;-77
2023/06/13 05:04:22;;;;;;;10.98;4.88;;;15.90;81.90;;;;;;5007240;28;20109;-78
2023/06/13 05:06:49;;;;;;;13.88;4.40;;;16.10;81.90;;;;;;4994701;28;20129;-78
2023/06/13 05:09:16;;;;;;;11.98;4.50;;;15.90;81.60;;;;;;5010918;28;20046;-80
2023/06/13 05:11:42;;;;;;;9.38;4.57;;;16.10;81.50;;;;;;4995136;28;20125;-77
2023/06/13 05:14:08;;;;;;;11.27;5.10;;;16.20;81.50;;;;;;4992836;28;20133;-82
2023/06/13 05:16:34;;;;;;;12.00;4.80;;;16.20;81.20;;;;;;4999092;28;20093;-80
2023/06/13 05:19:00;;;;;;;10.80;4.88;;;16.30;81.00;;;;;;5013976;28;20103;-80
2023/06/13 05:21:31;;;;;;;11.45;4.70;;;16.40;80.90;;;;;;4995902;28;20383;-80
2023/06/13 05:23:58;;;;;;;11.43;4.60;;;16.50;80.80;;;;;;4992882;28;20640;-79
2023/06/13 05:26:27;;;;;;;9.13;4.57;;;16.50;80.50;;;;;;4993859;28;20133;-81
2023/06/13 05:28:53;;;;;;;9.52;4.53;;;16.60;80.20;;;;;;4992728;28;20054;-80
2023/06/13 05:31:19;;;;;;;11.40;4.50;;;16.70;80.10;;;;;;5007546;28;20625;-83
2023/06/13 05:33:44;;;;;;;10.48;4.40;;;16.80;80.10;;;;;;5010835;28;20049;-83
2023/06/13 05:36:11;;;;;;;9.75;4.40;;;17.00;80.10;;;;;;5012369;28;20056;-82
2023/06/13 05:38:37;;;;;;;11.73;4.32;;;16.90;79.80;;;;;;5013632;28;20375;-83
2023/06/13 05:41:02;;;;;;;10.18;4.40;;;17.00;79.60;;;;;;5013541;28;20100;-77
2023/06/13 05:43:28;;;;;;;9.90;4.15;;;17.10;79.30;;;;;;5013238;28;20118;-78
2023/06/13 05:45:54;;;;;;;11.13;4.40;;;17.30;79.40;;;;;;5013690;28;20486;-79
2023/06/13 05:48:19;;;;;;;9.57;4.32;;;17.20;79.40;;;;;;5013558;28;20042;-80
2023/06/13 05:50:45;;;;;;;11.10;4.65;;;17.40;79.40;;;;;;5011962;28;20042;-79
2023/06/13 05:53:11;;;;;;;10.20;4.22;;;17.40;79.30;;;;;;5013506;28;20053;-79
2023/06/13 05:55:36;;;;;;;9.75;4.20;;;17.30;78.90;;;;;;5012891;28;20042;-79
2023/06/13 05:58:02;;;;;;;8.85;4.40;;;17.50;78.80;;;;;;5012519;28;20458;-79
2023/06/13 06:00:28;;;;;;;10.90;4.10;;;17.70;78.50;;;;;;5013400;28;20042;-79
2023/06/13 06:02:54;;;;;;;10.23;4.50;;;17.60;78.10;;;;;;5011680;28;20516;-79
2023/06/13 06:05:20;;;;;;;9.27;4.18;;;17.70;78.00;;;;;;5012987;28;20050;-79
2023/06/13 06:07:46;;;;;;;10.27;4.20;;;17.80;77.80;;;;;;5013858;28;20049;-79
2023/06/13 06:10:13;;;;;;;8.70;4.28;;;17.80;77.70;;;;;;5011023;28;20038;-79
2023/06/13 06:12:39;;;;;;;10.20;4.22;;;18.00;77.50;;;;;;5013435;28;20046;-79
2023/06/13 06:15:05;;;;;;;11.65;4.30;;;18.10;77.40;;;;;;5012600;28;20122;-79
2023/06/13 06:17:31;;;;;;;10.70;4.40;;;18.10;77.20;;;;;;5011673;28;20429;-79
2023/06/13 06:19:56;;;;;;;10.95;4.20;;;18.20;76.80;;;;;;5012461;28;20058;-80
2023/06/13 06:22:22;;;;;;;10.95;4.30;;;18.20;76.40;;;;;;4997044;28;20046;-79
2023/06/13 06:24:48;;;;;;;8.40;4.00;;;18.30;76.20;;;;;;4993187;28;20085;-80
2023/06/13 06:27:13;;;;;;;11.98;4.43;;;18.70;76.30;;;;;;4993032;28;20042;-80
2023/06/13 06:29:40;;;;;;;10.90;4.35;;;18.50;76.00;;;;;;4985037;28;20061;-80
2023/06/13 06:32:09;;;;;;;9.60;4.80;;;18.80;76.10;;;;;;4992792;28;20038;-79
2023/06/13 06:34:35;;;;;;;10.02;4.47;;;18.50;75.70;;;;;;5000661;28;20108;-80
2023/06/13 06:37:03;;;;;;;9.52;4.30;;;18.70;75.80;;;;;;5012472;28;20477;-79
2023/06/13 06:39:29;;;;;;;10.40;4.30;;;18.80;75.60;;;;;;5009329;28;20432;-79
2023/06/13 06:41:55;;;;;;;10.88;4.60;;;18.90;75.90;;;;;;5012719;28;20452;-79
2023/06/13 06:44:20;;;;;;;10.75;4.25;;;18.90;75.70;;;;;;5012011;28;20045;-79
2023/06/13 06:46:46;;;;;;;10.32;4.60;;;19.00;75.80;;;;;;5012822;28;20128;-79
2023/06/13 06:49:12;;;;;;;10.05;4.43;;;19.10;76.10;;;;;;5011283;28;20045;-79
2023/06/13 06:51:37;;;;;;;9.65;4.18;;;19.20;75.80;;;;;;5013414;28;20129;-78
2023/06/13 06:54:03;;;;;;;10.80;4.88;;;19.20;75.40;;;;;;4993322;28;20517;-79
2023/06/13 06:56:28;;;;;;;10.35;4.57;;;19.30;75.50;;;;;;4993003;28;20047;-78
2023/06/13 06:58:54;;;;;;;11.93;4.88;;;19.40;76.00;;;;;;4991585;28;20042;-79
2023/06/13 07:01:20;;;;;;;11.43;4.70;;;19.60;75.70;;;;;;4992442;28;20521;-79
2023/06/13 07:03:45;;;;;;;9.90;4.50;;;19.70;75.70;;;;;;4993055;28;20138;-78
2023/06/13 07:06:11;;;;;;;10.73;4.57;;;20.00;76.10;;;;;;4990815;28;20498;-78
2023/06/13 07:08:37;;;;;;;10.65;5.07;;;20.10;75.70;;;;;;4993187;28;20058;-77
2023/06/13 07:11:03;;;;;;;13.90;4.82;;;20.20;75.50;;;;;;5003732;28;20120;-79
2023/06/13 07:13:28;;;;;;;10.00;4.85;;;20.20;74.90;;;;;;5010515;28;20473;-79
2023/06/13 07:15:55;;;;;;;10.40;4.85;;;20.30;75.00;;;;;;5011366;28;20046;-79
2023/06/13 07:18:20;;;;;;;9.80;4.70;;;20.50;74.80;;;;;;5012131;28;20046;-79
2023/06/13 07:20:46;;;;;;;10.93;4.78;;;20.60;74.90;;;;;;5010600;28;20049;-79
2023/06/13 07:23:12;;;;;;;9.05;4.65;;;20.80;74.70;;;;;;5010713;28;20508;-80
2023/06/13 07:25:40;;;;;;;10.15;4.90;;;20.90;74.50;;;;;;5011198;28;20053;-80
2023/06/13 07:28:10;;;;;;;11.02;4.80;;;20.90;73.60;;;;;;5009691;28;20048;-84
2023/06/13 07:30:36;;;;;;;12.27;5.25;;;20.90;73.20;;;;;;5010074;28;20401;-85
2023/06/13 07:33:16;;;;;;;12.77;4.95;;;21.00;73.40;;;;;;5003441;28;20129;-84
2023/06/13 07:36:48;;;;;;;12.05;4.93;;;21.10;72.30;;;;;;5010533;28;20201;-85
2023/06/13 07:40:23;;;;;;;11.88;5.28;;;21.50;72.50;;;;;;5009885;28;20066;-86
2023/06/13 07:42:49;;;;;;;11.23;5.43;;;21.30;71.20;;;;;;5010246;28;20049;-85
2023/06/13 07:45:27;;;;;;;11.10;4.70;;;21.40;72.70;;;;;;5010836;28;20108;-85
2023/06/13 07:47:53;;;;;;;10.93;4.60;;;21.40;70.40;;;;;;5010653;28;20478;-85
2023/06/13 07:50:34;;;;;;;10.40;4.45;;;21.60;71.10;;;;;;5009908;28;20048;-85
2023/06/13 07:53:02;;;;;;;10.50;4.97;;;21.80;69.60;;;;;;5010564;28;20057;-86
2023/06/13 07:55:49;;;;;;;9.32;4.50;;;21.90;70.50;;;;;;5011680;28;20038;-87
2023/06/13 07:58:15;;;;;;;10.77;4.45;;;22.50;69.30;;;;;;5011159;28;20085;-84
2023/06/13 08:00:59;;;;;;;9.98;4.43;;;22.10;69.90;;;;;;5011700;28;20080;-84
2023/06/13 08:03:45;;;;;;;10.00;4.32;;;22.30;68.50;;;;;;5008334;28;20505;-85
2023/06/13 08:06:45;;;;;;;8.57;4.30;;;22.40;68.20;;;;;;4994371;28;20410;-85
2023/06/13 08:09:28;;;;;;;8.50;4.00;;;22.40;67.90;;;;;;4993996;28;20410;-85
2023/06/13 08:11:54;;;;;;;9.23;4.15;;;22.70;67.30;;;;;;4995963;28;20113;-85
2023/06/13 08:14:27;;;;;;;9.27;4.20;;;22.90;68.90;;;;;;4995583;28;20126;-85
2023/06/13 08:17:02;;;;;;;12.82;4.45;;;23.10;68.40;;;;;;4993668;28;20446;-85
2023/06/13 08:20:01;;;;;;;10.70;4.50;;;23.30;68.30;;;;;;5010295;28;20049;-85
2023/06/13 08:22:28;;;;;;;8.57;4.10;;;23.50;67.20;;;;;;4993308;28;20093;-85
2023/06/13 08:25:25;;;;;;;8.68;3.92;;;23.60;67.50;;;;;;4994715;28;20042;-85
2023/06/13 08:28:07;;;;;;;10.45;3.92;;;23.80;65.50;;;;;;4993662;28;20125;-85
2023/06/13 08:30:42;;;;;;;9.43;3.92;;;23.90;66.40;;;;;;4958200;28;20097;-85
2023/06/13 08:33:08;;;;;;;10.70;4.18;;;24.10;66.60;;;;;;4951274;28;20035;-86
2023/06/13 08:35:34;;;;;;;8.52;3.90;;;24.10;66.30;;;;;;4959109;28;20057;-85
2023/06/13 08:38:09;;;;;;;8.73;3.75;;;24.20;66.90;;;;;;4975405;28;20038;-84
2023/06/13 08:43:18;;;;;;;9.85;4.25;;;24.50;66.00;;;;;;5135571;22;20071;-80
2023/06/13 08:45:43;;;;;;;10.98;3.90;;;24.90;66.20;;;;;;5053893;28;20170;-80
2023/06/13 08:48:10;;;;;;;10.95;4.07;;;24.70;65.20;;;;;;5036785;28;20076;-81
2023/06/13 08:50:36;;;;;;;8.93;4.30;;;24.80;65.50;;;;;;5053448;28;20373;-80
2023/06/13 08:53:10;;;;;;;9.70;4.10;;;25.00;65.10;;;;;;5054519;28;20091;-80
2023/06/13 08:55:46;;;;;;;12.02;4.43;;;25.10;64.60;;;;;;5074639;28;20094;-83
2023/06/13 08:58:20;;;;;;;9.50;3.95;;;25.20;64.30;;;;;;5055723;28;20048;-83
2023/06/13 09:00:47;;;;;;;9.45;4.50;;;25.30;64.10;;;;;;5073654;28;20049;-83
2023/06/13 09:03:20;;;;;;;9.07;4.10;;;25.40;64.30;;;;;;5053438;28;20033;-83
2023/06/13 09:05:56;;;;;;;9.90;4.05;;;25.40;63.60;;;;;;5059887;28;20120;-85
2023/06/13 09:08:41;;;;;;;9.27;3.97;;;25.50;63.70;;;;;;5054190;28;20048;-84
2023/06/13 09:11:07;;;;;;;10.68;4.07;;;25.70;63.60;;;;;;5036319;28;20052;-84
2023/06/13 09:13:53;;;;;;;10.18;3.90;;;25.90;63.40;;;;;;5040367;28;20510;-84
2023/06/13 09:16:21;;;;;;;12.10;4.03;;;26.00;63.10;;;;;;5072657;28;20052;-84
2023/06/13 09:19:02;;;;;;;9.68;4.20;;;26.10;62.50;;;;;;5055645;28;20094;-82
2023/06/13 09:21:28;;;;;;;8.95;4.07;;;26.20;61.10;;;;;;5055586;28;20381;-82
2023/06/13 09:23:55;;;;;;;11.10;4.22;;;26.20;61.40;;;;;;5073945;28;20109;-82
2023/06/13 09:26:33;;;;;;;9.55;4.00;;;26.10;61.30;;;;;;5055829;28;20053;-82
2023/06/13 09:29:06;;;;;;;8.85;4.07;;;26.20;60.10;;;;;;5054883;28;20036;-85
2023/06/13 09:31:32;;;;;;;10.05;4.07;;;26.20;60.70;;;;;;5046861;22;20076;-87
2023/06/13 09:34:15;;;;;;;9.10;3.83;;;26.30;61.40;;;;;;5030487;28;20826;-83
2023/06/13 09:36:48;;;;;;;9.65;4.25;;;26.50;60.10;;;;;;5034226;28;20105;-83
2023/06/13 09:39:28;;;;;;;9.75;4.28;;;26.80;60.80;;;;;;5032425;28;20536;-82
2023/06/13 09:41:59;;;;;;;10.50;4.22;;;27.00;61.20;;;;;;5031736;28;20056;-84
2023/06/13 09:44:25;;;;;;;10.25;3.97;;;27.10;59.70;;;;;;5035294;28;20132;-83
2023/06/13 09:46:52;;;;;;;11.00;3.92;;;27.20;60.20;;;;;;5046893;28;20053;-82
2023/06/13 09:49:18;;;;;;;11.10;4.00;;;27.30;60.00;;;;;;5042649;28;20041;-83
2023/06/13 09:51:45;;;;;;;9.02;4.07;;;27.40;59.90;;;;;;5033608;28;20041;-83
2023/06/13 09:54:11;;;;;;;11.55;4.13;;;27.30;59.50;;;;;;5032012;28;20067;-83
2023/06/13 09:56:41;;;;;;;7.97;3.80;;;27.30;59.00;;;;;;5032736;28;20045;-83
2023/06/13 09:59:07;;;;;;;8.82;3.80;;;27.30;58.90;;;;;;5027497;28;20477;-83
2023/06/13 10:01:34;;;;;;;10.27;4.25;;;27.40;58.90;;;;;;5031828;28;20041;-82
2023/06/13 10:04:16;;;;;;;10.13;4.40;;;27.60;58.70;;;;;;5028307;28;20472;-82
2023/06/13 10:06:51;;;;;;;10.60;4.22;;;27.60;58.60;;;;;;5033581;28;20047;-83
2023/06/13 10:09:30;;;;;;;10.57;4.15;;;28.00;58.50;;;;;;5031016;28;20481;-80
2023/06/13 10:11:59;;;;;;;9.77;3.90;;;28.10;58.40;;;;;;5033458;28;20049;-83
2023/06/13 10:14:42;;;;;;;9.52;3.80;;;28.20;57.90;;;;;;5213141;22;20115;-84
2023/06/13 10:17:18;;;;;;;8.82;3.80;;;28.30;57.70;;;;;;5036329;22;20045;-81
2023/06/13 10:20:00;;;;;;;9.50;3.83;;;28.40;57.10;;;;;;5022460;28;20159;-80
2023/06/13 10:22:41;;;;;;;9.57;4.07;;;28.40;56.30;;;;;;5021647;28;20053;-80
2023/06/13 10:25:07;;;;;;;9.98;4.00;;;28.40;55.40;;;;;;5082667;22;20045;-80
2023/06/13 10:27:36;;;;;;;9.82;3.80;;;28.30;56.60;;;;;;5009872;28;20050;-80
2023/06/13 10:30:29;;;;;;;9.80;4.10;;;28.40;56.40;;;;;;5008797;28;20042;-81
2023/06/13 10:33:29;;;;;;;8.73;3.75;;;28.50;55.40;;;;;;5007494;28;20065;-80
2023/06/13 10:36:11;;;;;;;10.35;4.38;;;28.50;55.40;;;;;;5013294;28;20045;-80
2023/06/13 10:38:54;;;;;;;8.57;3.90;;;28.50;55.70;;;;;;5009298;28;20041;-80
2023/06/13 10:41:43;;;;;;;11.13;3.97;;;28.70;55.70;;;;;;5015736;28;20509;-81
2023/06/13 10:44:16;;;;;;;9.15;4.15;;;28.80;55.50;;;;;;5011047;28;20061;-82
2023/06/13 10:46:43;;;;;;;10.23;4.03;;;28.80;55.50;;;;;;5012819;28;20037;-81
2023/06/13 10:49:14;;;;;;;9.43;3.70;;;29.00;55.30;;;;;;5012444;28;20553;-82
2023/06/13 10:51:43;;;;;;;8.65;4.07;;;29.00;54.70;;;;;;5012270;28;20117;-82
2023/06/13 10:54:11;;;;;;;10.73;4.32;;;29.00;54.30;;;;;;5011545;28;20097;-81
2023/06/13 10:56:39;;;;;;;10.15;4.65;;;29.00;54.90;;;;;;5009031;28;20088;-82
2023/06/13 10:59:21;;;;;;;10.45;4.18;;;29.00;54.50;;;;;;5009070;28;20050;-80
2023/06/13 11:01:55;;;;;;;8.52;4.05;;;29.10;54.70;;;;;;5006646;28;20045;-80
2023/06/13 11:04:21;;;;;;;8.80;4.53;;;29.10;53.70;;;;;;5005172;28;20065;-79
2023/06/13 11:06:51;;;;;;;8.82;4.38;;;29.30;54.70;;;;;;5012065;28;20042;-81
2023/06/13 11:09:21;;;;;;;10.50;4.78;;;29.60;55.00;;;;;;5010963;28;20394;-81
2023/06/13 11:11:58;;;;;;;9.02;4.20;;;29.70;54.50;;;;;;5012231;28;20038;-80
2023/06/13 11:14:36;;;;;;;8.80;4.10;;;29.80;53.70;;;;;;5011346;28;20038;-79
2023/06/13 11:17:02;;;;;;;9.52;4.40;;;29.80;53.90;;;;;;5007520;28;20061;-80
2023/06/13 11:19:28;;;;;;;9.00;4.38;;;29.70;53.30;;;;;;5012515;28;20150;-80
2023/06/13 11:22:01;;;;;;;9.27;4.38;;;29.80;54.10;;;;;;5017071;28;20639;-79
2023/06/13 11:24:29;;;;;;;9.23;4.18;;;30.00;54.10;;;;;;5019156;28;20520;-80
2023/06/13 11:26:59;;;;;;;10.25;4.35;;;30.10;53.70;;;;;;5021467;28;20065;-80
2023/06/13 11:29:27;;;;;;;10.63;4.68;;;30.20;54.00;;;;;;5013003;28;20121;-80
2023/06/13 11:31:54;;;;;;;8.38;4.15;;;30.20;53.50;;;;;;5009432;28;20037;-80
2023/06/13 11:34:24;;;;;;;8.90;4.78;;;30.00;52.30;;;;;;5012853;28;20042;-80
2023/06/13 11:36:54;;;;;;;10.15;4.50;;;29.90;52.60;;;;;;5024729;28;20038;-80
2023/06/13 11:39:29;;;;;;;10.05;4.70;;;29.70;52.60;;;;;;5017398;28;20084;-79
2023/06/13 11:41:56;;;;;;;11.75;4.95;;;29.80;52.50;;;;;;5012866;28;20053;-79
2023/06/13 11:44:22;;;;;;;12.18;4.47;;;30.00;53.20;;;;;;5022904;28;20405;-79
2023/06/13 11:46:50;;;;;;;9.30;4.50;;;30.00;52.80;;;;;;5027759;22;20059;-79
2023/06/13 11:49:16;;;;;;;11.40;4.70;;;30.00;53.20;;;;;;5023409;28;20058;-79
2023/06/13 11:51:43;;;;;;;9.85;4.30;;;30.20;53.60;;;;;;5024810;28;20049;-80
2023/06/13 11:54:10;;;;;;;9.48;4.53;;;30.60;53.30;;;;;;5022758;28;20058;-79
2023/06/13 11:56:40;;;;;;;8.90;4.32;;;30.50;53.00;;;;;;5025226;28;20112;-79
2023/06/13 11:59:16;;;;;;;10.15;4.75;;;30.40;53.20;;;;;;5024005;28;20462;-81
2023/06/13 12:01:46;;;;;;;9.15;4.18;;;30.50;52.10;;;;;;5022542;28;20412;-81
2023/06/13 12:04:14;;;;;;;10.13;4.40;;;30.60;53.00;;;;;;5021672;28;20117;-81
2023/06/13 12:06:40;;;;;;;8.18;4.10;;;30.70;53.00;;;;;;5025201;28;20128;-81
2023/06/13 12:09:06;;;;;;;9.05;4.05;;;30.90;53.20;;;;;;5024916;28;20076;-81
2023/06/13 12:11:32;;;;;;;10.10;4.13;;;30.90;52.80;;;;;;5022050;28;20045;-81
2023/06/13 12:14:02;;;;;;;8.57;4.20;;;30.90;52.40;;;;;;5013827;28;20041;-81
2023/06/13 12:19:54;;;;;;;8.95;4.55;;;31.40;52.60;;;;;;5541939;22;20064;-81
2023/06/13 12:23:11;;;;;;;9.30;4.18;;;31.10;52.10;;;;;;5013275;28;20185;-82
2023/06/13 12:25:40;;;;;;;9.95;4.60;;;31.10;51.60;;;;;;5014099;28;20056;-82
2023/06/13 12:28:12;;;;;;;9.60;3.90;;;30.90;51.80;;;;;;5013901;28;20046;-81
2023/06/13 12:30:49;;;;;;;9.95;4.03;;;30.70;51.90;;;;;;5026045;28;20435;-81
2023/06/13 12:33:33;;;;;;;9.15;4.40;;;30.80;52.10;;;;;;5033602;28;20140;-81
2023/06/13 12:36:20;;;;;;;9.27;4.05;;;30.90;52.00;;;;;;5033213;28;20132;-81
2023/06/13 12:38:59;;;;;;;9.70;4.05;;;30.90;52.60;;;;;;5031743;28;20092;-79
2023/06/13 12:41:27;;;;;;;9.68;4.05;;;31.20;53.10;;;;;;5013877;28;20183;-81
2023/06/13 12:43:53;;;;;;;9.93;4.57;;;31.30;52.70;;;;;;5014431;28;20346;-81
2023/06/13 12:46:38;;;;;;;9.45;4.00;;;31.60;53.00;;;;;;5027500;28;20507;-81
2023/06/13 12:49:25;;;;;;;9.93;4.35;;;31.50;53.20;;;;;;5034796;28;20075;-80
2023/06/13 12:51:57;;;;;;;9.80;4.00;;;31.60;52.80;;;;;;5032752;28;20049;-81
2023/06/13 12:54:25;;;;;;;9.50;4.10;;;31.70;52.80;;;;;;5034387;28;20051;-81
2023/06/13 13:00:19;;;;;;;9.07;4.22;;;32.10;52.70;;;;;;5016537;28;20108;-81
2023/06/13 13:02:47;;;;;;;11.35;4.40;;;32.20;52.60;;;;;;5034554;28;20501;-81
2023/06/13 13:05:27;;;;;;;9.57;4.32;;;32.00;52.50;;;;;;5032092;28;20038;-81
2023/06/13 13:07:56;;;;;;;10.27;4.43;;;32.00;53.80;;;;;;5033355;28;20048;-81